sensor_id;sensor_type;location;lat;lon;timestamp;pressure;altitude;pressure_sealevel;temperature;humidity
19676;BME280;39539;52.202;9.876;2023-05-22T00:02:04;100768.13;;;18.06;82.25
19676;BME280;39539;52.202;9.876;2023-05-22T00:04:30;100761.94;;;18.05;82.60
19676;BME280;39539;52.202;9.876;2023-05-22T00:06:56;100759.41;;;17.93;83.04
19676;BME280;39539;52.202;9.876;2023-05-22T00:09:23;100750.88;;;18.02;82.73
19676;BME280;39539;52.202;9.876;2023-05-22T00:11:49;100736.44;;;17.81;83.46
19676;BME280;39539;52.202;9.876;2023-05-22T00:14:15;100753.28;;;17.98;82.82
19676;BME280;39539;52.202;9.876;2023-05-22T00:16:40;100748.66;;;17.93;83.11
19676;BME280;39539;52.202;9.876;2023-05-22T00:19:06;100751.34;;;17.93;82.73
19676;BME280;39539;52.202;9.876;2023-05-22T00:21:37;100747.72;;;17.83;84.15
19676;BME280;39539;52.202;9.876;2023-05-22T00:24:03;100741.66;;;17.70;84.69
19676;BME280;39539;52.202;9.876;2023-05-22T00:26:28;100742.97;;;17.68;84.81
19676;BME280;39539;52.202;9.876;2023-05-22T00:28:57;100745.66;;;17.68;84.94
19676;BME280;39539;52.202;9.876;2023-05-22T00:31:22;100749.22;;;17.73;85.18
19676;BME280;39539;52.202;9.876;2023-05-22T00:33:48;100751.34;;;17.71;85.46
19676;BME280;39539;52.202;9.876;2023-05-22T00:36:14;100752.66;;;17.69;85.53
19676;BME280;39539;52.202;9.876;2023-05-22T00:38:39;100754.09;;;17.55;86.24
19676;BME280;39539;52.202;9.876;2023-05-22T00:41:05;100733.88;;;17.47;86.32
19676;BME280;39539;52.202;9.876;2023-05-22T00:43:31;100755.75;;;17.56;86.40
19676;BME280;39539;52.202;9.876;2023-05-22T00:45:57;100754.75;;;17.62;86.09
19676;BME280;39539;52.202;9.876;2023-05-22T00:48:23;100749.72;;;17.70;85.32
19676;BME280;39539;52.202;9.876;2023-05-22T00:50:50;100752.72;;;17.74;85.13
19676;BME280;39539;52.202;9.876;2023-05-22T00:53:19;100759.97;;;17.73;85.18
19676;BME280;39539;52.202;9.876;2023-05-22T00:55:45;100752.94;;;17.67;85.36
19676;BME280;39539;52.202;9.876;2023-05-22T00:58:14;100751.56;;;17.65;85.53
19676;BME280;39539;52.202;9.876;2023-05-22T01:00:41;100753.66;;;17.63;86.20
19676;BME280;39539;52.202;9.876;2023-05-22T01:03:07;100748.78;;;17.60;86.34
19676;BME280;39539;52.202;9.876;2023-05-22T01:05:34;100739.50;;;17.45;86.57
19676;BME280;39539;52.202;9.876;2023-05-22T01:07:59;100757.19;;;17.41;87.68
19676;BME280;39539;52.202;9.876;2023-05-22T01:10:27;100751.81;;;17.41;87.93
19676;BME280;39539;52.202;9.876;2023-05-22T01:15:43;100752.38;;;17.43;88.17
19676;BME280;39539;52.202;9.876;2023-05-22T01:18:23;100745.31;;;17.37;88.41
19676;BME280;39539;52.202;9.876;2023-05-22T01:20:58;100757.22;;;17.46;88.49
19676;BME280;39539;52.202;9.876;2023-05-22T01:26:26;100748.13;;;17.47;88.21
19676;BME280;39539;52.202;9.876;2023-05-22T01:29:02;100755.69;;;17.50;87.98
19676;BME280;39539;52.202;9.876;2023-05-22T01:31:36;100728.69;;;17.40;88.23
19676;BME280;39539;52.202;9.876;2023-05-22T01:34:04;100746.56;;;17.51;87.98
19676;BME280;39539;52.202;9.876;2023-05-22T01:36:33;100735.69;;;17.41;88.33
19676;BME280;39539;52.202;9.876;2023-05-22T01:39:00;100737.31;;;17.42;89.10
19676;BME280;39539;52.202;9.876;2023-05-22T01:41:31;100728.13;;;17.38;89.10
19676;BME280;39539;52.202;9.876;2023-05-22T01:43:57;100735.50;;;17.26;90.44
19676;BME280;39539;52.202;9.876;2023-05-22T01:46:27;100717.53;;;17.10;90.72
19676;BME280;39539;52.202;9.876;2023-05-22T01:48:53;100725.00;;;17.02;91.28
19676;BME280;39539;52.202;9.876;2023-05-22T01:51:38;100736.13;;;17.11;91.90
19676;BME280;39539;52.202;9.876;2023-05-22T01:54:21;100724.72;;;17.04;91.55
19676;BME280;39539;52.202;9.876;2023-05-22T01:56:56;100747.09;;;17.10;91.89
19676;BME280;39539;52.202;9.876;2023-05-22T01:59:44;100728.97;;;17.00;92.29
19676;BME280;39539;52.202;9.876;2023-05-22T02:02:14;100745.41;;;17.03;92.85
19676;BME280;39539;52.202;9.876;2023-05-22T02:04:45;100736.16;;;16.94;93.05
19676;BME280;39539;52.202;9.876;2023-05-22T02:07:11;100737.16;;;16.88;93.69
19676;BME280;39539;52.202;9.876;2023-05-22T02:09:39;100735.84;;;16.74;94.30
19676;BME280;39539;52.202;9.876;2023-05-22T02:12:05;100746.56;;;16.74;94.30
19676;BME280;39539;52.202;9.876;2023-05-22T02:14:31;100730.47;;;16.74;94.39
19676;BME280;39539;52.202;9.876;2023-05-22T02:16:58;100740.63;;;16.72;94.71
19676;BME280;39539;52.202;9.876;2023-05-22T02:19:26;100733.66;;;16.71;94.71
19676;BME280;39539;52.202;9.876;2023-05-22T02:21:53;100725.13;;;16.57;94.84
19676;BME280;39539;52.202;9.876;2023-05-22T02:24:20;100725.34;;;16.55;95.17
19676;BME280;39539;52.202;9.876;2023-05-22T02:26:47;100717.25;;;16.50;95.71
19676;BME280;39539;52.202;9.876;2023-05-22T02:29:13;100700.66;;;16.53;95.22
19676;BME280;39539;52.202;9.876;2023-05-22T02:31:38;100715.19;;;16.57;95.74
19676;BME280;39539;52.202;9.876;2023-05-22T02:34:03;100714.56;;;16.50;96.02
19676;BME280;39539;52.202;9.876;2023-05-22T02:36:30;100701.69;;;16.52;95.68
19676;BME280;39539;52.202;9.876;2023-05-22T02:38:56;100701.06;;;16.45;95.12
19676;BME280;39539;52.202;9.876;2023-05-22T02:41:22;100701.59;;;16.47;95.31
19676;BME280;39539;52.202;9.876;2023-05-22T02:43:47;100703.75;;;16.45;95.33
19676;BME280;39539;52.202;9.876;2023-05-22T02:46:13;100704.94;;;16.37;95.97
19676;BME280;39539;52.202;9.876;2023-05-22T02:48:38;100716.81;;;16.42;96.08
19676;BME280;39539;52.202;9.876;2023-05-22T02:51:03;100715.03;;;16.30;97.39
19676;BME280;39539;52.202;9.876;2023-05-22T02:53:29;100701.78;;;16.07;98.85
19676;BME280;39539;52.202;9.876;2023-05-22T02:55:54;100703.84;;;15.88;100.00
19676;BME280;39539;52.202;9.876;2023-05-22T02:58:23;100719.38;;;15.86;100.00
19676;BME280;39539;52.202;9.876;2023-05-22T03:00:49;100710.84;;;15.60;100.00
19676;BME280;39539;52.202;9.876;2023-05-22T03:03:16;100722.03;;;15.57;100.00
19676;BME280;39539;52.202;9.876;2023-05-22T03:05:42;100703.81;;;15.31;100.00
19676;BME280;39539;52.202;9.876;2023-05-22T03:08:07;100710.69;;;15.26;100.00
19676;BME280;39539;52.202;9.876;2023-05-22T03:10:32;100698.81;;;15.22;100.00
19676;BME280;39539;52.202;9.876;2023-05-22T03:12:58;100695.47;;;15.15;100.00
19676;BME280;39539;52.202;9.876;2023-05-22T03:15:23;100688.72;;;15.13;100.00
19676;BME280;39539;52.202;9.876;2023-05-22T03:17:48;100711.28;;;15.29;100.00
19676;BME280;39539;52.202;9.876;2023-05-22T03:20:14;100705.81;;;15.23;100.00
19676;BME280;39539;52.202;9.876;2023-05-22T03:22:40;100706.50;;;15.31;100.00
19676;BME280;39539;52.202;9.876;2023-05-22T03:25:06;100716.72;;;15.34;100.00
19676;BME280;39539;52.202;9.876;2023-05-22T03:27:33;100717.31;;;15.36;100.00
19676;BME280;39539;52.202;9.876;2023-05-22T03:29:59;100699.41;;;15.24;100.00
19676;BME280;39539;52.202;9.876;2023-05-22T03:32:24;100704.19;;;15.22;100.00
19676;BME280;39539;52.202;9.876;2023-05-22T03:34:50;100718.38;;;15.35;100.00
19676;BME280;39539;52.202;9.876;2023-05-22T03:37:15;100717.53;;;15.34;100.00
19676;BME280;39539;52.202;9.876;2023-05-22T03:39:40;100712.06;;;15.41;100.00
19676;BME280;39539;52.202;9.876;2023-05-22T03:42:06;100711.69;;;15.49;100.00
19676;BME280;39539;52.202;9.876;2023-05-22T03:44:31;100691.22;;;15.43;100.00
19676;BME280;39539;52.202;9.876;2023-05-22T03:46:56;100718.88;;;15.60;100.00
19676;BME280;39539;52.202;9.876;2023-05-22T03:49:22;100701.53;;;15.51;100.00
19676;BME280;39539;52.202;9.876;2023-05-22T03:51:47;100709.44;;;15.58;100.00
19676;BME280;39539;52.202;9.876;2023-05-22T03:54:12;100712.72;;;15.48;100.00
19676;BME280;39539;52.202;9.876;2023-05-22T03:56:38;100724.13;;;15.55;100.00
19676;BME280;39539;52.202;9.876;2023-05-22T03:59:03;100720.00;;;15.64;100.00
19676;BME280;39539;52.202;9.876;2023-05-22T04:01:28;100714.69;;;15.53;100.00
19676;BME280;39539;52.202;9.876;2023-05-22T04:03:55;100729.25;;;15.68;100.00
19676;BME280;39539;52.202;9.876;2023-05-22T04:06:20;100710.25;;;15.58;100.00
19676;BME280;39539;52.202;9.876;2023-05-22T04:08:46;100713.50;;;15.72;100.00
19676;BME280;39539;52.202;9.876;2023-05-22T04:11:12;100710.56;;;15.74;100.00
19676;BME280;39539;52.202;9.876;2023-05-22T04:13:40;100728.88;;;15.93;100.00
19676;BME280;39539;52.202;9.876;2023-05-22T04:16:05;100729.22;;;15.97;100.00
19676;BME280;39539;52.202;9.876;2023-05-22T04:18:31;100742.81;;;16.07;100.00
19676;BME280;39539;52.202;9.876;2023-05-22T04:20:56;100722.72;;;16.10;99.28
19676;BME280;39539;52.202;9.876;2023-05-22T04:23:21;100739.09;;;16.25;99.76
19676;BME280;39539;52.202;9.876;2023-05-22T04:25:48;100716.66;;;16.14;100.00
19676;BME280;39539;52.202;9.876;2023-05-22T04:28:13;100737.63;;;16.34;100.00
19676;BME280;39539;52.202;9.876;2023-05-22T04:30:42;100742.50;;;16.21;99.27
19676;BME280;39539;52.202;9.876;2023-05-22T04:33:07;100734.38;;;16.32;99.85
19676;BME280;39539;52.202;9.876;2023-05-22T04:35:32;100735.03;;;16.39;98.67
19676;BME280;39539;52.202;9.876;2023-05-22T04:37:58;100739.16;;;16.47;100.00
19676;BME280;39539;52.202;9.876;2023-05-22T04:40:28;100744.47;;;16.59;100.00
19676;BME280;39539;52.202;9.876;2023-05-22T04:42:58;100737.22;;;16.59;100.00
19676;BME280;39539;52.202;9.876;2023-05-22T04:45:25;100734.56;;;16.59;99.13
19676;BME280;39539;52.202;9.876;2023-05-22T04:47:51;100744.31;;;16.66;98.61
19676;BME280;39539;52.202;9.876;2023-05-22T04:50:20;100739.44;;;16.63;98.06
19676;BME280;39539;52.202;9.876;2023-05-22T04:52:46;100743.22;;;16.67;98.19
19676;BME280;39539;52.202;9.876;2023-05-22T04:55:12;100748.88;;;16.65;97.52
19676;BME280;39539;52.202;9.876;2023-05-22T04:57:38;100751.78;;;16.80;97.14
19676;BME280;39539;52.202;9.876;2023-05-22T05:00:04;100746.31;;;16.92;97.13
19676;BME280;39539;52.202;9.876;2023-05-22T05:02:31;100721.63;;;16.90;96.49
19676;BME280;39539;52.202;9.876;2023-05-22T05:04:56;100729.94;;;17.11;96.43
19676;BME280;39539;52.202;9.876;2023-05-22T05:07:22;100729.38;;;17.09;96.88
19676;BME280;39539;52.202;9.876;2023-05-22T05:09:48;100726.47;;;17.15;96.59
19676;BME280;39539;52.202;9.876;2023-05-22T05:12:14;100723.00;;;17.15;95.87
19676;BME280;39539;52.202;9.876;2023-05-22T05:14:39;100709.94;;;17.23;96.64
19676;BME280;39539;52.202;9.876;2023-05-22T05:17:05;100711.50;;;17.41;94.40
19676;BME280;39539;52.202;9.876;2023-05-22T05:19:30;100706.81;;;17.54;92.54
19676;BME280;39539;52.202;9.876;2023-05-22T05:21:58;100713.97;;;17.70;91.33
19676;BME280;39539;52.202;9.876;2023-05-22T05:24:23;100718.97;;;17.83;89.36
19676;BME280;39539;52.202;9.876;2023-05-22T05:26:49;100715.03;;;17.69;91.38
19676;BME280;39539;52.202;9.876;2023-05-22T05:29:15;100712.59;;;17.67;90.29
19676;BME280;39539;52.202;9.876;2023-05-22T05:31:40;100708.31;;;17.93;90.64
19676;BME280;39539;52.202;9.876;2023-05-22T05:34:06;100713.56;;;18.10;90.13
19676;BME280;39539;52.202;9.876;2023-05-22T05:36:31;100696.91;;;18.13;90.01
19676;BME280;39539;52.202;9.876;2023-05-22T05:38:57;100712.31;;;18.18;92.06
19676;BME280;39539;52.202;9.876;2023-05-22T05:41:23;100694.53;;;18.17;91.45
19676;BME280;39539;52.202;9.876;2023-05-22T05:43:49;100704.19;;;18.13;90.23
19676;BME280;39539;52.202;9.876;2023-05-22T05:46:17;100705.38;;;18.27;91.14
19676;BME280;39539;52.202;9.876;2023-05-22T05:48:42;100693.19;;;18.20;89.70
19676;BME280;39539;52.202;9.876;2023-05-22T05:51:08;100712.38;;;18.28;90.05
19676;BME280;39539;52.202;9.876;2023-05-22T05:53:33;100701.69;;;18.38;88.36
19676;BME280;39539;52.202;9.876;2023-05-22T05:56:01;100702.72;;;18.32;90.15
19676;BME280;39539;52.202;9.876;2023-05-22T05:58:27;100709.28;;;18.47;89.02
19676;BME280;39539;52.202;9.876;2023-05-22T06:00:53;100708.69;;;18.34;88.94
19676;BME280;39539;52.202;9.876;2023-05-22T06:03:23;100704.69;;;18.42;87.91
19676;BME280;39539;52.202;9.876;2023-05-22T06:05:50;100689.94;;;18.50;86.99
19676;BME280;39539;52.202;9.876;2023-05-22T06:08:15;100697.97;;;19.45;81.59
19676;BME280;39539;52.202;9.876;2023-05-22T06:10:41;100704.03;;;19.93;79.12
19676;BME280;39539;52.202;9.876;2023-05-22T06:13:06;100711.59;;;20.68;75.19
19676;BME280;39539;52.202;9.876;2023-05-22T06:15:32;100711.88;;;21.51;70.45
19676;BME280;39539;52.202;9.876;2023-05-22T06:17:57;100713.06;;;22.14;69.80
19676;BME280;39539;52.202;9.876;2023-05-22T06:20:23;100699.84;;;22.41;67.71
19676;BME280;39539;52.202;9.876;2023-05-22T06:22:50;100684.38;;;21.79;67.50
19676;BME280;39539;52.202;9.876;2023-05-22T06:25:16;100701.84;;;23.13;65.26
19676;BME280;39539;52.202;9.876;2023-05-22T06:27:42;100699.44;;;24.39;59.92
19676;BME280;39539;52.202;9.876;2023-05-22T06:30:09;100701.91;;;24.68;58.03
19676;BME280;39539;52.202;9.876;2023-05-22T06:32:34;100687.00;;;25.85;56.04
19676;BME280;39539;52.202;9.876;2023-05-22T06:35:00;100688.00;;;27.22;53.54
19676;BME280;39539;52.202;9.876;2023-05-22T06:37:25;100669.13;;;28.51;49.35
19676;BME280;39539;52.202;9.876;2023-05-22T06:39:51;100671.59;;;29.03;47.28
19676;BME280;39539;52.202;9.876;2023-05-22T06:42:16;100667.09;;;30.37;45.71
19676;BME280;39539;52.202;9.876;2023-05-22T06:44:42;100652.50;;;31.75;43.20
19676;BME280;39539;52.202;9.876;2023-05-22T06:47:07;100640.00;;;31.77;42.03
19676;BME280;39539;52.202;9.876;2023-05-22T06:49:33;100632.03;;;31.32;42.21
19676;BME280;39539;52.202;9.876;2023-05-22T06:51:58;100622.72;;;30.23;44.27
19676;BME280;39539;52.202;9.876;2023-05-22T06:54:23;100622.75;;;30.47;44.54
19676;BME280;39539;52.202;9.876;2023-05-22T06:56:53;100619.34;;;31.40;43.46
19676;BME280;39539;52.202;9.876;2023-05-22T06:59:19;100608.81;;;31.86;42.17
19676;BME280;39539;52.202;9.876;2023-05-22T07:01:44;100600.09;;;32.79;40.12
19676;BME280;39539;52.202;9.876;2023-05-22T07:04:12;100601.16;;;32.90;40.10
19676;BME280;39539;52.202;9.876;2023-05-22T07:06:39;100600.44;;;32.77;41.27
19676;BME280;39539;52.202;9.876;2023-05-22T07:09:06;100592.84;;;29.96;43.14
19676;BME280;39539;52.202;9.876;2023-05-22T07:11:33;100605.16;;;30.36;44.26
19676;BME280;39539;52.202;9.876;2023-05-22T07:14:00;100598.63;;;30.77;44.36
19676;BME280;39539;52.202;9.876;2023-05-22T07:16:26;100586.13;;;28.77;46.40
19676;BME280;39539;52.202;9.876;2023-05-22T07:18:53;100599.47;;;28.99;46.54
19676;BME280;39539;52.202;9.876;2023-05-22T07:21:20;100592.78;;;27.56;49.10
19676;BME280;39539;52.202;9.876;2023-05-22T07:23:48;100614.25;;;29.49;47.55
19676;BME280;39539;52.202;9.876;2023-05-22T07:26:13;100600.69;;;30.43;44.58
19676;BME280;39539;52.202;9.876;2023-05-22T07:28:39;100580.50;;;30.03;44.29
19676;BME280;39539;52.202;9.876;2023-05-22T07:31:04;100583.44;;;29.52;45.02
19676;BME280;39539;52.202;9.876;2023-05-22T07:33:30;100594.00;;;30.08;45.91
19676;BME280;39539;52.202;9.876;2023-05-22T07:35:57;100583.28;;;29.36;46.64
19676;BME280;39539;52.202;9.876;2023-05-22T07:38:24;100597.69;;;30.49;44.98
19676;BME280;39539;52.202;9.876;2023-05-22T07:40:49;100584.44;;;30.87;44.13
19676;BME280;39539;52.202;9.876;2023-05-22T07:43:15;100562.03;;;30.61;43.91
19676;BME280;39539;52.202;9.876;2023-05-22T07:45:41;100560.47;;;29.65;46.02
19676;BME280;39539;52.202;9.876;2023-05-22T07:48:06;100567.72;;;30.68;44.69
19676;BME280;39539;52.202;9.876;2023-05-22T07:50:31;100558.09;;;30.99;43.93
19676;BME280;39539;52.202;9.876;2023-05-22T07:52:58;100557.66;;;29.20;46.20
19676;BME280;39539;52.202;9.876;2023-05-22T07:55:25;100568.84;;;29.81;45.87
19676;BME280;39539;52.202;9.876;2023-05-22T07:57:50;100574.53;;;32.98;41.85
19676;BME280;39539;52.202;9.876;2023-05-22T08:00:17;100579.84;;;35.51;37.91
19676;BME280;39539;52.202;9.876;2023-05-22T08:02:43;100566.69;;;36.85;35.69
19676;BME280;39539;52.202;9.876;2023-05-22T08:05:09;100580.47;;;38.15;34.40
19676;BME280;39539;52.202;9.876;2023-05-22T08:07:35;100569.19;;;35.90;35.64
19676;BME280;39539;52.202;9.876;2023-05-22T08:10:06;100580.56;;;33.42;38.48
19676;BME280;39539;52.202;9.876;2023-05-22T08:12:32;100584.78;;;31.26;42.87
19676;BME280;39539;52.202;9.876;2023-05-22T08:14:58;100578.81;;;31.24;43.14
19676;BME280;39539;52.202;9.876;2023-05-22T08:17:23;100595.44;;;31.56;43.10
19676;BME280;39539;52.202;9.876;2023-05-22T08:19:49;100600.53;;;32.46;42.08
19676;BME280;39539;52.202;9.876;2023-05-22T08:22:16;100601.41;;;33.40;39.88
19676;BME280;39539;52.202;9.876;2023-05-22T08:24:41;100590.31;;;34.21;37.61
19676;BME280;39539;52.202;9.876;2023-05-22T08:27:12;100578.81;;;34.69;39.37
19676;BME280;39539;52.202;9.876;2023-05-22T08:29:40;100567.28;;;35.23;37.17
19676;BME280;39539;52.202;9.876;2023-05-22T08:32:06;100571.47;;;34.04;39.40
19676;BME280;39539;52.202;9.876;2023-05-22T08:34:31;100569.75;;;34.18;40.05
19676;BME280;39539;52.202;9.876;2023-05-22T08:36:58;100554.72;;;33.70;39.84
19676;BME280;39539;52.202;9.876;2023-05-22T08:39:25;100555.91;;;33.49;39.70
19676;BME280;39539;52.202;9.876;2023-05-22T08:41:54;100547.69;;;33.11;40.12
19676;BME280;39539;52.202;9.876;2023-05-22T08:44:23;100551.88;;;33.24;40.02
19676;BME280;39539;52.202;9.876;2023-05-22T08:46:51;100534.94;;;32.86;40.92
19676;BME280;39539;52.202;9.876;2023-05-22T08:49:18;100550.88;;;32.42;42.08
19676;BME280;39539;52.202;9.876;2023-05-22T08:51:47;100537.84;;;31.75;42.45
19676;BME280;39539;52.202;9.876;2023-05-22T08:54:18;100552.47;;;29.39;47.17
19676;BME280;39539;52.202;9.876;2023-05-22T08:56:48;100529.66;;;27.05;51.62
19676;BME280;39539;52.202;9.876;2023-05-22T08:59:14;100556.81;;;27.27;52.57
19676;BME280;39539;52.202;9.876;2023-05-22T09:01:40;100574.88;;;28.70;50.31
19676;BME280;39539;52.202;9.876;2023-05-22T09:04:06;100581.97;;;29.54;48.17
19676;BME280;39539;52.202;9.876;2023-05-22T09:06:31;100563.44;;;30.55;46.27
19676;BME280;39539;52.202;9.876;2023-05-22T09:08:58;100573.78;;;31.83;44.68
19676;BME280;39539;52.202;9.876;2023-05-22T09:11:24;100563.31;;;32.87;42.14
19676;BME280;39539;52.202;9.876;2023-05-22T09:13:50;100547.78;;;33.37;41.78
19676;BME280;39539;52.202;9.876;2023-05-22T09:16:17;100555.28;;;34.02;39.88
19676;BME280;39539;52.202;9.876;2023-05-22T09:18:44;100551.97;;;33.70;40.42
19676;BME280;39539;52.202;9.876;2023-05-22T09:21:11;100538.34;;;32.60;41.83
19676;BME280;39539;52.202;9.876;2023-05-22T09:23:48;100540.16;;;32.21;43.71
19676;BME280;39539;52.202;9.876;2023-05-22T09:26:14;100528.59;;;33.41;41.29
19676;BME280;39539;52.202;9.876;2023-05-22T09:28:40;100532.47;;;34.05;39.89
19676;BME280;39539;52.202;9.876;2023-05-22T09:31:07;100537.09;;;33.32;41.60
19676;BME280;39539;52.202;9.876;2023-05-22T09:33:35;100535.88;;;33.72;41.64
19676;BME280;39539;52.202;9.876;2023-05-22T09:36:01;100532.19;;;34.94;38.83
19676;BME280;39539;52.202;9.876;2023-05-22T09:38:28;100504.84;;;33.56;40.97
19676;BME280;39539;52.202;9.876;2023-05-22T09:40:54;100517.34;;;32.20;42.69
19676;BME280;39539;52.202;9.876;2023-05-22T09:43:22;100516.78;;;30.55;45.76
19676;BME280;39539;52.202;9.876;2023-05-22T09:45:57;100529.38;;;30.96;46.28
19676;BME280;39539;52.202;9.876;2023-05-22T09:48:24;100539.28;;;31.85;44.71
19676;BME280;39539;52.202;9.876;2023-05-22T09:50:56;100533.00;;;32.16;44.10
19676;BME280;39539;52.202;9.876;2023-05-22T09:53:26;100543.34;;;32.39;44.12
19676;BME280;39539;52.202;9.876;2023-05-22T09:55:55;100542.19;;;32.24;43.62
19676;BME280;39539;52.202;9.876;2023-05-22T09:58:25;100554.41;;;33.52;42.59
19676;BME280;39539;52.202;9.876;2023-05-22T10:00:52;100540.09;;;32.88;42.65
19676;BME280;39539;52.202;9.876;2023-05-22T10:03:22;100531.63;;;31.79;44.48
19676;BME280;39539;52.202;9.876;2023-05-22T10:05:51;100525.44;;;31.66;44.52
19676;BME280;39539;52.202;9.876;2023-05-22T10:08:23;100530.81;;;30.65;45.69
19676;BME280;39539;52.202;9.876;2023-05-22T10:10:50;100523.63;;;30.49;47.39
19676;BME280;39539;52.202;9.876;2023-05-22T10:13:20;100533.25;;;30.18;47.99
19676;BME280;39539;52.202;9.876;2023-05-22T10:15:49;100551.38;;;31.24;45.84
19676;BME280;39539;52.202;9.876;2023-05-22T10:18:16;100535.28;;;31.10;45.25
19676;BME280;39539;52.202;9.876;2023-05-22T10:20:44;100509.69;;;29.47;48.50
19676;BME280;39539;52.202;9.876;2023-05-22T10:23:13;100534.84;;;30.19;47.37
19676;BME280;39539;52.202;9.876;2023-05-22T10:25:40;100533.84;;;30.24;46.80
19676;BME280;39539;52.202;9.876;2023-05-22T10:28:06;100533.00;;;29.98;48.26
19676;BME280;39539;52.202;9.876;2023-05-22T10:30:50;100530.75;;;30.25;47.18
19676;BME280;39539;52.202;9.876;2023-05-22T10:33:21;100535.44;;;30.49;47.38
19676;BME280;39539;52.202;9.876;2023-05-22T10:35:51;100528.25;;;30.32;48.32
19676;BME280;39539;52.202;9.876;2023-05-22T10:41:07;100526.22;;;28.54;50.21
19676;BME280;39539;52.202;9.876;2023-05-22T10:43:37;100522.97;;;28.61;49.31
19676;BME280;39539;52.202;9.876;2023-05-22T10:46:05;100522.84;;;28.99;51.31
19676;BME280;39539;52.202;9.876;2023-05-22T10:48:38;100523.13;;;29.06;49.99
19676;BME280;39539;52.202;9.876;2023-05-22T10:51:18;100531.50;;;28.59;50.45
19676;BME280;39539;52.202;9.876;2023-05-22T10:53:50;100527.69;;;28.73;50.97
19676;BME280;39539;52.202;9.876;2023-05-22T10:56:19;100527.09;;;28.46;50.84
19676;BME280;39539;52.202;9.876;2023-05-22T10:58:55;100527.41;;;28.36;50.70
19676;BME280;39539;52.202;9.876;2023-05-22T11:01:24;100519.66;;;28.17;52.77
19676;BME280;39539;52.202;9.876;2023-05-22T11:06:44;100527.66;;;27.84;52.11
19676;BME280;39539;52.202;9.876;2023-05-22T11:09:31;100528.22;;;27.42;53.07
19676;BME280;39539;52.202;9.876;2023-05-22T11:12:23;100534.63;;;27.55;53.12
19676;BME280;39539;52.202;9.876;2023-05-22T11:15:05;100529.94;;;27.64;52.66
19676;BME280;39539;52.202;9.876;2023-05-22T11:17:42;100526.41;;;28.11;52.58
19676;BME280;39539;52.202;9.876;2023-05-22T11:20:23;100527.00;;;27.87;54.37
19676;BME280;39539;52.202;9.876;2023-05-22T11:23:04;100507.91;;;28.16;52.10
19676;BME280;39539;52.202;9.876;2023-05-22T11:25:35;100501.00;;;27.81;51.62
19676;BME280;39539;52.202;9.876;2023-05-22T11:28:03;100511.88;;;27.98;53.38
19676;BME280;39539;52.202;9.876;2023-05-22T11:30:30;100513.00;;;28.27;53.79
19676;BME280;39539;52.202;9.876;2023-05-22T11:33:00;100501.91;;;27.93;53.11
19676;BME280;39539;52.202;9.876;2023-05-22T11:35:26;100506.72;;;27.41;54.72
19676;BME280;39539;52.202;9.876;2023-05-22T11:37:53;100507.75;;;27.74;53.51
19676;BME280;39539;52.202;9.876;2023-05-22T11:40:20;100523.22;;;27.53;55.29
19676;BME280;39539;52.202;9.876;2023-05-22T11:42:47;100517.06;;;27.73;54.22
19676;BME280;39539;52.202;9.876;2023-05-22T11:45:13;100506.94;;;27.74;51.94
19676;BME280;39539;52.202;9.876;2023-05-22T11:47:39;100494.19;;;27.31;52.45
19676;BME280;39539;52.202;9.876;2023-05-22T11:50:07;100500.16;;;27.16;54.29
19676;BME280;39539;52.202;9.876;2023-05-22T11:52:35;100492.91;;;27.20;53.90
19676;BME280;39539;52.202;9.876;2023-05-22T11:55:03;100501.41;;;27.44;55.06
19676;BME280;39539;52.202;9.876;2023-05-22T11:57:32;100494.09;;;27.74;55.20
19676;BME280;39539;52.202;9.876;2023-05-22T11:59:59;100484.47;;;27.60;53.38
19676;BME280;39539;52.202;9.876;2023-05-22T12:02:25;100493.13;;;27.70;54.57
19676;BME280;39539;52.202;9.876;2023-05-22T12:04:57;100486.63;;;27.37;52.99
19676;BME280;39539;52.202;9.876;2023-05-22T12:07:24;100473.63;;;27.34;53.27
19676;BME280;39539;52.202;9.876;2023-05-22T12:09:52;100482.47;;;27.30;53.41
19676;BME280;39539;52.202;9.876;2023-05-22T12:12:23;100477.75;;;27.48;54.77
19676;BME280;39539;52.202;9.876;2023-05-22T12:14:50;100489.16;;;27.59;53.30
19676;BME280;39539;52.202;9.876;2023-05-22T12:17:16;100470.72;;;27.39;55.12
19676;BME280;39539;52.202;9.876;2023-05-22T12:19:43;100480.53;;;27.40;54.64
19676;BME280;39539;52.202;9.876;2023-05-22T12:22:09;100479.44;;;27.32;55.27
19676;BME280;39539;52.202;9.876;2023-05-22T12:24:38;100459.53;;;26.88;55.37
19676;BME280;39539;52.202;9.876;2023-05-22T12:27:08;100482.63;;;27.08;54.60
19676;BME280;39539;52.202;9.876;2023-05-22T12:29:37;100465.16;;;26.74;55.28
19676;BME280;39539;52.202;9.876;2023-05-22T12:32:07;100471.88;;;26.68;56.74
19676;BME280;39539;52.202;9.876;2023-05-22T12:34:41;100470.28;;;27.02;55.99
19676;BME280;39539;52.202;9.876;2023-05-22T12:37:23;100471.09;;;27.02;55.26
19676;BME280;39539;52.202;9.876;2023-05-22T12:42:18;100479.41;;;27.15;54.49
19676;BME280;39539;52.202;9.876;2023-05-22T12:44:56;100474.44;;;27.25;54.93
19676;BME280;39539;52.202;9.876;2023-05-22T12:47:23;100465.28;;;27.30;55.47
19676;BME280;39539;52.202;9.876;2023-05-22T12:49:50;100487.94;;;27.30;53.48
19676;BME280;39539;52.202;9.876;2023-05-22T12:52:27;100471.72;;;26.91;53.39
19676;BME280;39539;52.202;9.876;2023-05-22T12:55:06;100471.88;;;26.68;54.58
19676;BME280;39539;52.202;9.876;2023-05-22T12:57:31;100464.31;;;26.48;55.27
19676;BME280;39539;52.202;9.876;2023-05-22T13:00:02;100436.53;;;26.19;57.14
19676;BME280;39539;52.202;9.876;2023-05-22T13:02:31;100467.84;;;26.48;57.28
19676;BME280;39539;52.202;9.876;2023-05-22T13:04:56;100476.84;;;26.66;55.50